Aviation Digital Data Service (ADDS)

Output produced by METARs form (1741 UTC 03 December 2016)
found at http://aviationweather.gov/adds/metars/
 
KGNV 031723Z 0318/0418 07007KT P6SM FEW035 SCT120 
     FM040200 05004KT P6SM SCT030 BKN080 
     FM040700 06003KT 4SM BR BKN025 BKN080 
     FM041400 12011KT P6SM SCT030 BKN080